Aster — CURM9 — position and weather

sailwx.info

Track history (hours):
 
Tides and Currents Weather Stations Pressure Air Temp Water Temp Dewpoint Dewpoint Depression Visibility Wind Speed Wind Dir Waves Ship Positions

Aster

Last reported at 2017-Oct-19 23:28 UTC. Time now 2017-Oct-19 23:51 UTC.
Position N 38°26' W 009°07'.

Length 25 m.

Type: Fishing. MMSI: 263402890.

Date/timePositionNaut miles runAvg speedWind from/ knotsBaromVisibWave heightAir tempDewpointWater temp
2017-Oct-19 23:28N 38°26' W 009°07'0 0.0
2017-Oct-19 22:59N 38°26' W 009°07'0 0.0
2017-Oct-19 22:30N 38°26' W 009°07'0 0.0
2017-Oct-19 22:00N 38°26' W 009°07'0 0.1
2017-Oct-19 19:06N 38°26' W 009°07'0 0.0
2017-Oct-19 17:08N 38°26' W 009°07'0 0.0
2017-Oct-19 17:00N 38°26' W 009°07'0 0.0
2017-Oct-19 16:27N 38°26' W 009°07'0 0.0
2017-Oct-19 16:00N 38°26' W 009°07'0 0.3
2017-Oct-19 15:30N 38°26' W 009°07'5 8.0
2017-Oct-19 14:54N 38°22' W 009°07'4 8.6
2017-Oct-19 14:25N 38°17' W 009°06'36 3.9
2017-Oct-19 05:09N 37°42' W 009°00'1 4.7
2017-Oct-19 04:58N 37°41' W 009°00'2 1.9
2017-Oct-19 04:07N 37°43' W 009°00'1 3.1
2017-Oct-19 03:51N 37°43' W 008°60'1 3.0
2017-Oct-19 03:24N 37°45' W 008°59'1 3.0
2017-Oct-19 03:01N 37°46' W 008°59'2 3.0
2017-Oct-19 02:31N 37°47' W 008°59'2 3.0
2017-Oct-19 02:00N 37°49' W 008°60'2 3.0
2017-Oct-19 01:30N 37°50' W 009°00'2 3.0
2017-Oct-19 01:00N 37°52' W 009°01'2 3.5
2017-Oct-19 00:30N 37°53' W 009°02'0 0.3
2017-Oct-19 00:00N 37°53' W 009°02'2 3.1
2017-Oct-18 23:30N 37°52' W 009°01'2 3.1
2017-Oct-18 23:01N 37°51' W 009°00'2 3.0
2017-Oct-18 22:31N 37°49' W 008°59'2 3.0
2017-Oct-18 22:01N 37°48' W 008°59'2 3.0
2017-Oct-18 21:30N 37°46' W 008°59'2 3.1
2017-Oct-18 21:01N 37°45' W 008°59'1 3.0
2017-Oct-18 20:30N 37°43' W 008°60'2 3.4
2017-Oct-18 19:50N 37°41' W 009°00'1 1.8
2017-Oct-18 19:30N 37°41' W 009°00'10 3.1
2017-Oct-18 16:10N 37°30' W 009°00'0 0.6
2017-Oct-18 16:00N 37°30' W 009°00'2 3.0
2017-Oct-18 15:23N 37°28' W 009°00'5 0.8
2017-Oct-18 08:21N 37°32' W 009°05'11 3.0
2017-Oct-18 04:39N 37°43' W 009°06'0 0.7
2017-Oct-18 04:28N 37°43' W 009°07'1 1.4
2017-Oct-18 04:00N 37°43' W 009°07'2 3.0
2017-Oct-18 03:27N 37°41' W 009°07'2 3.1
2017-Oct-18 02:46N 37°39' W 009°07'1 3.1
2017-Oct-18 02:26N 37°38' W 009°07'5 0.9
2017-Oct-17 20:36N 37°43' W 009°06'0 2.4
2017-Oct-17 20:29N 37°43' W 009°05'3 5.8
2017-Oct-17 20:01N 37°42' W 009°02'2 3.6
2017-Oct-17 19:28N 37°42' W 008°59'1 1.8
2017-Oct-17 18:50N 37°43' W 009°01'1 3.0
2017-Oct-17 18:30N 37°42' W 009°02'2 3.1
2017-Oct-17 17:53N 37°41' W 009°03'1 3.2
2017-Oct-17 17:30N 37°40' W 009°03'2 3.6
2017-Oct-17 17:00N 37°38' W 009°03'2 2.3
2017-Oct-17 16:19N 37°36' W 009°04'1 3.2
2017-Oct-17 16:00N 37°35' W 009°04'3 0.5
2017-Oct-17 10:08N 37°33' W 009°05'10 2.2
2017-Oct-17 05:29N 37°43' W 009°07'3 6.0
2017-Oct-17 05:00N 37°46' W 009°07'4 8.7
2017-Oct-17 04:30N 37°50' W 009°06'4 8.3
2017-Oct-17 04:01N 37°54' W 009°07'4 8.1
2017-Oct-17 03:30N 37°58' W 009°06'4 8.4
2017-Oct-17 03:00N 38°02' W 009°06'4 8.3
2017-Oct-17 02:30N 38°06' W 009°06'4 8.3
2017-Oct-17 02:01N 38°11' W 009°06'4 8.0
2017-Oct-17 01:30N 38°15' W 009°06'4 8.1
2017-Oct-17 01:01N 38°19' W 009°07'4 8.2
2017-Oct-17 00:30N 38°23' W 009°07'4 7.0
2017-Oct-17 00:00N 38°26' W 009°06'0 0.7
2017-Oct-16 23:25N 38°26' W 009°07'0 0.0
2017-Oct-16 22:59N 38°26' W 009°07'0 0.0
2017-Oct-16 22:29N 38°26' W 009°07'0 0.0
2017-Oct-16 21:51N 38°26' W 009°07'0 0.0
2017-Oct-16 21:00N 38°26' W 009°07'0 0.0
2017-Oct-16 19:47N 38°26' W 009°07'0 0.0
2017-Oct-16 19:21N 38°26' W 009°07'0 0.0
2017-Oct-16 18:59N 38°26' W 009°07'0 0.0
2017-Oct-16 18:28N 38°26' W 009°07'0 0.0
2017-Oct-16 18:00N 38°26' W 009°07'0 0.0
2017-Oct-16 17:30N 38°26' W 009°07'0 0.0
2017-Oct-16 17:00N 38°26' W 009°07'0 0.0
2017-Oct-16 16:29N 38°26' W 009°07'0 0.0
2017-Oct-16 16:00N 38°26' W 009°07'0 0.0
2017-Oct-16 15:30N 38°26' W 009°07'0 0.0
2017-Oct-16 15:00N 38°26' W 009°07'0 0.0
2017-Oct-16 14:30N 38°26' W 009°07'3 3.1
2017-Oct-16 13:30N 38°23' W 009°07'24 5.5
2017-Oct-16 09:05N 37°59' W 009°04'1 8.3
2017-Oct-16 09:01N 37°59' W 009°04'2 3.3
2017-Oct-16 08:30N 37°58' W 009°02'2 3.2
2017-Oct-16 08:01N 37°56' W 009°01'2 3.3
2017-Oct-16 07:31N 37°55' W 009°01'2 3.1
2017-Oct-16 07:00N 37°53' W 009°02'1 2.1
2017-Oct-16 06:31N 37°52' W 009°02'2 3.1
2017-Oct-16 06:00N 37°51' W 009°01'2 3.1
2017-Oct-16 05:31N 37°49' W 009°00'2 3.1
2017-Oct-16 05:01N 37°48' W 009°00'2 3.2
2017-Oct-16 04:30N 37°46' W 008°60'2 3.3
2017-Oct-16 04:00N 37°44' W 008°60'2 3.2
2017-Oct-16 03:30N 37°43' W 008°60'2 1.6
2017-Oct-16 02:05N 37°41' W 009°00'1 3.2
2017-Oct-16 01:53N 37°41' W 009°00'1 3.2
2017-Oct-16 01:31N 37°42' W 009°00'2 3.3
2017-Oct-16 01:00N 37°44' W 008°60'2 3.2
2017-Oct-16 00:30N 37°46' W 008°59'2 3.2
2017-Oct-16 00:00N 37°47' W 008°59'2 3.2
2017-Oct-15 23:30N 37°49' W 008°60'2 3.3
2017-Oct-15 23:00N 37°50' W 009°00'2 3.3
2017-Oct-15 22:30N 37°52' W 009°01'1 2.5
2017-Oct-15 22:00N 37°53' W 009°02'1 2.9
2017-Oct-15 21:31N 37°52' W 009°01'2 3.2
2017-Oct-15 21:00N 37°50' W 009°00'2 3.2
2017-Oct-15 20:30N 37°49' W 008°59'2 3.1
2017-Oct-15 20:01N 37°48' W 008°59'2 3.2
2017-Oct-15 19:31N 37°46' W 008°59'2 3.2
2017-Oct-15 19:01N 37°44' W 008°59'2 3.3
2017-Oct-15 18:30N 37°43' W 008°60'2 3.7
2017-Oct-15 18:00N 37°41' W 008°60'1 1.9
2017-Oct-15 17:29N 37°40' W 008°60'2 3.1
2017-Oct-15 17:00N 37°42' W 009°00'2 3.1
2017-Oct-15 16:30N 37°43' W 009°00'2 3.1
2017-Oct-15 16:01N 37°45' W 009°00'2 3.1
2017-Oct-15 15:30N 37°46' W 009°01'2 3.1
2017-Oct-15 15:00N 37°48' W 009°02'3 3.1
2017-Oct-15 14:00N 37°51' W 009°03'2 4.2
2017-Oct-15 13:30N 37°51' W 009°05'1 2.2
2017-Oct-15 13:00N 37°50' W 009°05'2 3.3
2017-Oct-15 12:30N 37°48' W 009°05'2 3.1
2017-Oct-15 12:00N 37°46' W 009°05'2 3.2
2017-Oct-15 11:30N 37°45' W 009°06'2 3.5
2017-Oct-15 10:57N 37°43' W 009°06'3 7.4
2017-Oct-15 10:31N 37°42' W 009°02'2 3.8
2017-Oct-15 10:00N 37°41' W 008°60'12 2.9
2017-Oct-15 05:55N 37°29' W 008°58'2 0.3
2017-Oct-15 00:03N 37°28' W 008°56'15 2.9
2017-Oct-14 19:00N 37°15' W 009°03'9 3.4
2017-Oct-14 16:13N 37°23' W 008°58'10 2.9
2017-Oct-14 12:52N 37°33' W 008°56'17 0.9
2017-Oct-13 16:49N 37°49' W 009°04'1 3.1
2017-Oct-13 16:30N 37°50' W 009°04'2 3.2
2017-Oct-13 16:00N 37°52' W 009°04'2 3.7
2017-Oct-13 15:30N 37°53' W 009°03'3 5.1
2017-Oct-13 15:00N 37°54' W 009°00'2 3.0
2017-Oct-13 14:30N 37°52' W 008°59'2 3.8
2017-Oct-13 14:00N 37°51' W 008°58'2 3.8
2017-Oct-13 13:31N 37°50' W 008°56'2 3.8
2017-Oct-13 13:00N 37°48' W 008°56'6 0.6
2017-Oct-13 02:11N 37°42' W 008°60'2 3.1
2017-Oct-13 01:40N 37°43' W 008°60'0 3.1
2017-Oct-13 01:30N 37°44' W 008°60'2 3.1
2017-Oct-13 01:00N 37°45' W 008°60'2 3.0
2017-Oct-13 00:30N 37°47' W 009°00'2 3.1
2017-Oct-13 00:00N 37°49' W 009°00'2 3.0
2017-Oct-12 23:30N 37°50' W 009°01'1 2.9
2017-Oct-12 23:01N 37°51' W 009°01'1 1.6
2017-Oct-12 22:30N 37°52' W 009°02'1 2.1
2017-Oct-12 22:00N 37°51' W 009°01'2 3.1
2017-Oct-12 21:30N 37°50' W 009°01'2 3.1
2017-Oct-12 21:00N 37°48' W 009°01'2 3.0
2017-Oct-12 20:31N 37°47' W 009°01'2 3.0
2017-Oct-12 20:00N 37°45' W 009°01'1 2.9
2017-Oct-12 19:31N 37°44' W 009°00'2 3.6
2017-Oct-12 19:00N 37°42' W 009°01'1 1.5
2017-Oct-12 18:31N 37°42' W 009°02'1 3.0
2017-Oct-12 18:00N 37°41' W 009°03'2 3.0
2017-Oct-12 17:30N 37°40' W 009°04'2 3.2
2017-Oct-12 17:01N 37°38' W 009°03'5 0.1
2017-Oct-10 18:37N 37°43' W 009°07'3 0.3
2017-Oct-10 08:16N 37°45' W 009°05'1 3.1
2017-Oct-10 08:00N 37°46' W 009°05'2 3.2
2017-Oct-10 07:31N 37°48' W 009°04'2 3.1
2017-Oct-10 06:57N 37°50' W 009°04'1 3.3
2017-Oct-10 06:29N 37°51' W 009°04'1 2.2
2017-Oct-10 06:00N 37°52' W 009°05'0 0.1
2017-Oct-10 05:30N 37°52' W 009°05'4 7.4
2017-Oct-10 05:00N 37°56' W 009°05'4 7.3
2017-Oct-10 04:31N 37°59' W 009°05'4 7.4
2017-Oct-10 04:00N 38°03' W 009°06'4 7.3
2017-Oct-10 03:30N 38°07' W 009°05'3 7.0
2017-Oct-10 03:01N 38°10' W 009°05'4 7.2
2017-Oct-10 02:31N 38°14' W 009°05'4 7.3
2017-Oct-10 02:01N 38°18' W 009°06'3 5.0
2017-Oct-10 01:30N 38°20' W 009°06'4 7.0
2017-Oct-10 01:00N 38°24' W 009°06'3 5.6
2017-Oct-10 00:30N 38°26' W 009°07'0 0.1
2017-Oct-10 00:01N 38°26' W 009°07'0 0.0
2017-Oct-09 23:30N 38°26' W 009°07'  
Track history (hours):
 
Tides and Currents Weather Stations Pressure Air Temp Water Temp Dewpoint Dewpoint Depression Visibility Wind Speed Wind Dir Waves Ship Positions

Aster

Last reported at 2017-Oct-19 23:28 UTC. Time now 2017-Oct-19 23:51 UTC.
Position N 38°26' W 009°07'.

Length 25 m.

Type: Fishing. MMSI: 263402890.

Date/timePositionNaut miles runAvg speedWind from/ knotsBaromVisibWave heightAir tempDewpointWater temp
2017-Oct-19 23:28N 38°26' W 009°07'0 0.0
2017-Oct-19 22:59N 38°26' W 009°07'0 0.0
2017-Oct-19 22:30N 38°26' W 009°07'0 0.0
2017-Oct-19 22:00N 38°26' W 009°07'0 0.1
2017-Oct-19 19:06N 38°26' W 009°07'0 0.0
2017-Oct-19 17:08N 38°26' W 009°07'0 0.0
2017-Oct-19 17:00N 38°26' W 009°07'0 0.0
2017-Oct-19 16:27N 38°26' W 009°07'0 0.0
2017-Oct-19 16:00N 38°26' W 009°07'0 0.3
2017-Oct-19 15:30N 38°26' W 009°07'5 8.0
2017-Oct-19 14:54N 38°22' W 009°07'4 8.6
2017-Oct-19 14:25N 38°17' W 009°06'36 3.9
2017-Oct-19 05:09N 37°42' W 009°00'1 4.7
2017-Oct-19 04:58N 37°41' W 009°00'2 1.9
2017-Oct-19 04:07N 37°43' W 009°00'1 3.1
2017-Oct-19 03:51N 37°43' W 008°60'1 3.0
2017-Oct-19 03:24N 37°45' W 008°59'1 3.0
2017-Oct-19 03:01N 37°46' W 008°59'2 3.0
2017-Oct-19 02:31N 37°47' W 008°59'2 3.0
2017-Oct-19 02:00N 37°49' W 008°60'2 3.0
2017-Oct-19 01:30N 37°50' W 009°00'2 3.0
2017-Oct-19 01:00N 37°52' W 009°01'2 3.5
2017-Oct-19 00:30N 37°53' W 009°02'0 0.3
2017-Oct-19 00:00N 37°53' W 009°02'2 3.1
2017-Oct-18 23:30N 37°52' W 009°01'2 3.1
2017-Oct-18 23:01N 37°51' W 009°00'2 3.0
2017-Oct-18 22:31N 37°49' W 008°59'2 3.0
2017-Oct-18 22:01N 37°48' W 008°59'2 3.0
2017-Oct-18 21:30N 37°46' W 008°59'2 3.1
2017-Oct-18 21:01N 37°45' W 008°59'1 3.0
2017-Oct-18 20:30N 37°43' W 008°60'2 3.4
2017-Oct-18 19:50N 37°41' W 009°00'1 1.8
2017-Oct-18 19:30N 37°41' W 009°00'10 3.1
2017-Oct-18 16:10N 37°30' W 009°00'0 0.6
2017-Oct-18 16:00N 37°30' W 009°00'2 3.0
2017-Oct-18 15:23N 37°28' W 009°00'5 0.8
2017-Oct-18 08:21N 37°32' W 009°05'11 3.0
2017-Oct-18 04:39N 37°43' W 009°06'0 0.7
2017-Oct-18 04:28N 37°43' W 009°07'1 1.4
2017-Oct-18 04:00N 37°43' W 009°07'2 3.0
2017-Oct-18 03:27N 37°41' W 009°07'2 3.1
2017-Oct-18 02:46N 37°39' W 009°07'1 3.1
2017-Oct-18 02:26N 37°38' W 009°07'5 0.9
2017-Oct-17 20:36N 37°43' W 009°06'0 2.4
2017-Oct-17 20:29N 37°43' W 009°05'3 5.8
2017-Oct-17 20:01N 37°42' W 009°02'2 3.6
2017-Oct-17 19:28N 37°42' W 008°59'1 1.8
2017-Oct-17 18:50N 37°43' W 009°01'1 3.0
2017-Oct-17 18:30N 37°42' W 009°02'2 3.1
2017-Oct-17 17:53N 37°41' W 009°03'1 3.2
2017-Oct-17 17:30N 37°40' W 009°03'2 3.6
2017-Oct-17 17:00N 37°38' W 009°03'2 2.3
2017-Oct-17 16:19N 37°36' W 009°04'1 3.2
2017-Oct-17 16:00N 37°35' W 009°04'3 0.5
2017-Oct-17 10:08N 37°33' W 009°05'10 2.2
2017-Oct-17 05:29N 37°43' W 009°07'3 6.0
2017-Oct-17 05:00N 37°46' W 009°07'4 8.7
2017-Oct-17 04:30N 37°50' W 009°06'4 8.3
2017-Oct-17 04:01N 37°54' W 009°07'4 8.1
2017-Oct-17 03:30N 37°58' W 009°06'4 8.4
2017-Oct-17 03:00N 38°02' W 009°06'4 8.3
2017-Oct-17 02:30N 38°06' W 009°06'4 8.3
2017-Oct-17 02:01N 38°11' W 009°06'4 8.0
2017-Oct-17 01:30N 38°15' W 009°06'4 8.1
2017-Oct-17 01:01N 38°19' W 009°07'4 8.2
2017-Oct-17 00:30N 38°23' W 009°07'4 7.0
2017-Oct-17 00:00N 38°26' W 009°06'0 0.7
2017-Oct-16 23:25N 38°26' W 009°07'0 0.0
2017-Oct-16 22:59N 38°26' W 009°07'0 0.0
2017-Oct-16 22:29N 38°26' W 009°07'0 0.0
2017-Oct-16 21:51N 38°26' W 009°07'0 0.0
2017-Oct-16 21:00N 38°26' W 009°07'0 0.0
2017-Oct-16 19:47N 38°26' W 009°07'0 0.0
2017-Oct-16 19:21N 38°26' W 009°07'0 0.0
2017-Oct-16 18:59N 38°26' W 009°07'0 0.0
2017-Oct-16 18:28N 38°26' W 009°07'0 0.0
2017-Oct-16 18:00N 38°26' W 009°07'0 0.0
2017-Oct-16 17:30N 38°26' W 009°07'0 0.0
2017-Oct-16 17:00N 38°26' W 009°07'0 0.0
2017-Oct-16 16:29N 38°26' W 009°07'0 0.0
2017-Oct-16 16:00N 38°26' W 009°07'0 0.0
2017-Oct-16 15:30N 38°26' W 009°07'0 0.0
2017-Oct-16 15:00N 38°26' W 009°07'0 0.0
2017-Oct-16 14:30N 38°26' W 009°07'3 3.1
2017-Oct-16 13:30N 38°23' W 009°07'24 5.5
2017-Oct-16 09:05N 37°59' W 009°04'1 8.3
2017-Oct-16 09:01N 37°59' W 009°04'2 3.3
2017-Oct-16 08:30N 37°58' W 009°02'2 3.2
2017-Oct-16 08:01N 37°56' W 009°01'2 3.3
2017-Oct-16 07:31N 37°55' W 009°01'2 3.1
2017-Oct-16 07:00N 37°53' W 009°02'1 2.1
2017-Oct-16 06:31N 37°52' W 009°02'2 3.1
2017-Oct-16 06:00N 37°51' W 009°01'2 3.1
2017-Oct-16 05:31N 37°49' W 009°00'2 3.1
2017-Oct-16 05:01N 37°48' W 009°00'2 3.2
2017-Oct-16 04:30N 37°46' W 008°60'2 3.3
2017-Oct-16 04:00N 37°44' W 008°60'2 3.2
2017-Oct-16 03:30N 37°43' W 008°60'2 1.6
2017-Oct-16 02:05N 37°41' W 009°00'1 3.2
2017-Oct-16 01:53N 37°41' W 009°00'1 3.2
2017-Oct-16 01:31N 37°42' W 009°00'2 3.3
2017-Oct-16 01:00N 37°44' W 008°60'2 3.2
2017-Oct-16 00:30N 37°46' W 008°59'2 3.2
2017-Oct-16 00:00N 37°47' W 008°59'2 3.2
2017-Oct-15 23:30N 37°49' W 008°60'2 3.3
2017-Oct-15 23:00N 37°50' W 009°00'2 3.3
2017-Oct-15 22:30N 37°52' W 009°01'1 2.5
2017-Oct-15 22:00N 37°53' W 009°02'1 2.9
2017-Oct-15 21:31N 37°52' W 009°01'2 3.2
2017-Oct-15 21:00N 37°50' W 009°00'2 3.2
2017-Oct-15 20:30N 37°49' W 008°59'2 3.1
2017-Oct-15 20:01N 37°48' W 008°59'2 3.2
2017-Oct-15 19:31N 37°46' W 008°59'2 3.2
2017-Oct-15 19:01N 37°44' W 008°59'2 3.3
2017-Oct-15 18:30N 37°43' W 008°60'2 3.7
2017-Oct-15 18:00N 37°41' W 008°60'1 1.9
2017-Oct-15 17:29N 37°40' W 008°60'2 3.1
2017-Oct-15 17:00N 37°42' W 009°00'2 3.1
2017-Oct-15 16:30N 37°43' W 009°00'2 3.1
2017-Oct-15 16:01N 37°45' W 009°00'2 3.1
2017-Oct-15 15:30N 37°46' W 009°01'2 3.1
2017-Oct-15 15:00N 37°48' W 009°02'3 3.1
2017-Oct-15 14:00N 37°51' W 009°03'2 4.2
2017-Oct-15 13:30N 37°51' W 009°05'1 2.2
2017-Oct-15 13:00N 37°50' W 009°05'2 3.3
2017-Oct-15 12:30N 37°48' W 009°05'2 3.1
2017-Oct-15 12:00N 37°46' W 009°05'2 3.2
2017-Oct-15 11:30N 37°45' W 009°06'2 3.5
2017-Oct-15 10:57N 37°43' W 009°06'3 7.4
2017-Oct-15 10:31N 37°42' W 009°02'2 3.8
2017-Oct-15 10:00N 37°41' W 008°60'12 2.9
2017-Oct-15 05:55N 37°29' W 008°58'2 0.3
2017-Oct-15 00:03N 37°28' W 008°56'15 2.9
2017-Oct-14 19:00N 37°15' W 009°03'9 3.4
2017-Oct-14 16:13N 37°23' W 008°58'10 2.9
2017-Oct-14 12:52N 37°33' W 008°56'17 0.9
2017-Oct-13 16:49N 37°49' W 009°04'1 3.1
2017-Oct-13 16:30N 37°50' W 009°04'2 3.2
2017-Oct-13 16:00N 37°52' W 009°04'2 3.7
2017-Oct-13 15:30N 37°53' W 009°03'3 5.1
2017-Oct-13 15:00N 37°54' W 009°00'2 3.0
2017-Oct-13 14:30N 37°52' W 008°59'2 3.8
2017-Oct-13 14:00N 37°51' W 008°58'2 3.8
2017-Oct-13 13:31N 37°50' W 008°56'2 3.8
2017-Oct-13 13:00N 37°48' W 008°56'6 0.6
2017-Oct-13 02:11N 37°42' W 008°60'2 3.1
2017-Oct-13 01:40N 37°43' W 008°60'0 3.1
2017-Oct-13 01:30N 37°44' W 008°60'2 3.1
2017-Oct-13 01:00N 37°45' W 008°60'2 3.0
2017-Oct-13 00:30N 37°47' W 009°00'2 3.1
2017-Oct-13 00:00N 37°49' W 009°00'2 3.0
2017-Oct-12 23:30N 37°50' W 009°01'1 2.9
2017-Oct-12 23:01N 37°51' W 009°01'1 1.6
2017-Oct-12 22:30N 37°52' W 009°02'1 2.1
2017-Oct-12 22:00N 37°51' W 009°01'2 3.1
2017-Oct-12 21:30N 37°50' W 009°01'2 3.1
2017-Oct-12 21:00N 37°48' W 009°01'2 3.0
2017-Oct-12 20:31N 37°47' W 009°01'2 3.0
2017-Oct-12 20:00N 37°45' W 009°01'1 2.9
2017-Oct-12 19:31N 37°44' W 009°00'2 3.6
2017-Oct-12 19:00N 37°42' W 009°01'1 1.5
2017-Oct-12 18:31N 37°42' W 009°02'1 3.0
2017-Oct-12 18:00N 37°41' W 009°03'2 3.0
2017-Oct-12 17:30N 37°40' W 009°04'2 3.2
2017-Oct-12 17:01N 37°38' W 009°03'5 0.1
2017-Oct-10 18:37N 37°43' W 009°07'3 0.3
2017-Oct-10 08:16N 37°45' W 009°05'1 3.1
2017-Oct-10 08:00N 37°46' W 009°05'2 3.2
2017-Oct-10 07:31N 37°48' W 009°04'2 3.1
2017-Oct-10 06:57N 37°50' W 009°04'1 3.3
2017-Oct-10 06:29N 37°51' W 009°04'1 2.2
2017-Oct-10 06:00N 37°52' W 009°05'0 0.1
2017-Oct-10 05:30N 37°52' W 009°05'4 7.4
2017-Oct-10 05:00N 37°56' W 009°05'4 7.3
2017-Oct-10 04:31N 37°59' W 009°05'4 7.4
2017-Oct-10 04:00N 38°03' W 009°06'4 7.3
2017-Oct-10 03:30N 38°07' W 009°05'3 7.0
2017-Oct-10 03:01N 38°10' W 009°05'4 7.2
2017-Oct-10 02:31N 38°14' W 009°05'4 7.3
2017-Oct-10 02:01N 38°18' W 009°06'3 5.0
2017-Oct-10 01:30N 38°20' W 009°06'4 7.0
2017-Oct-10 01:00N 38°24' W 009°06'3 5.6
2017-Oct-10 00:30N 38°26' W 009°07'0 0.1
2017-Oct-10 00:01N 38°26' W 009°07'0 0.0
2017-Oct-09 23:30N 38°26' W 009°07'  

Dump ship's entire track history